createdAt,value
2022-10-25T00:03:56.203Z,13.85
2022-10-25T00:08:58.569Z,13.40
2022-10-25T00:14:04.162Z,11.07
2022-10-25T00:19:06.615Z,12.77
2022-10-25T00:24:10.729Z,13.95
2022-10-25T00:29:13.548Z,10.90
2022-10-25T00:34:15.966Z,15.63
2022-10-25T00:39:18.474Z,14.23
2022-10-25T00:44:39.125Z,11.25
2022-10-25T00:49:42.447Z,9.25
2022-10-25T00:54:47.259Z,8.77
2022-10-25T00:59:49.796Z,10.73
2022-10-25T01:04:52.195Z,8.25
2022-10-25T01:09:54.583Z,12.48
2022-10-25T01:14:56.958Z,11.60
2022-10-25T01:20:33.179Z,10.65
2022-10-25T01:25:38.221Z,10.18
2022-10-25T01:31:17.429Z,13.48
2022-10-25T01:36:44.997Z,13.93
2022-10-25T01:42:05.624Z,12.63
2022-10-25T01:47:15.644Z,12.15
2022-10-25T01:52:22.535Z,12.48
2022-10-25T01:57:46.774Z,8.65
2022-10-25T02:03:15.007Z,12.45
2022-10-25T02:08:23.139Z,9.30
2022-10-25T02:13:49.002Z,11.40
2022-10-25T02:18:55.666Z,16.83
2022-10-25T02:23:59.308Z,8.63
2022-10-25T02:29:04.485Z,12.43
2022-10-25T02:34:07.160Z,13.10
2022-10-25T02:39:09.486Z,15.93
2022-10-25T02:44:11.775Z,19.73
2022-10-25T02:49:14.056Z,13.55
2022-10-25T02:54:16.472Z,11.38
2022-10-25T02:59:20.073Z,13.75
2022-10-25T03:04:22.556Z,13.63
2022-10-25T03:09:24.839Z,13.77
2022-10-25T03:14:27.127Z,11.77
2022-10-25T03:19:29.483Z,14.68
2022-10-25T03:24:31.866Z,15.18
2022-10-25T03:29:34.195Z,12.75
2022-10-25T03:34:36.537Z,14.52
2022-10-25T03:39:38.919Z,19.70
2022-10-25T03:44:41.334Z,13.88
2022-10-25T03:49:43.659Z,16.75
2022-10-25T03:54:45.998Z,14.52
2022-10-25T03:59:48.272Z,13.35
2022-10-25T04:04:50.661Z,13.30
2022-10-25T04:09:53.050Z,13.65
2022-10-25T04:14:55.468Z,16.02
2022-10-25T04:19:57.756Z,21.48
2022-10-25T04:25:00.166Z,28.77
2022-10-25T04:30:02.571Z,19.85
2022-10-25T04:35:05.349Z,24.92
2022-10-25T04:40:08.271Z,25.35
2022-10-25T04:45:10.807Z,23.08
2022-10-25T04:50:13.170Z,16.88
2022-10-25T04:55:15.593Z,26.17
2022-10-25T05:00:17.932Z,37.47
2022-10-25T05:05:21.118Z,41.78
2022-10-25T05:10:23.481Z,47.38
2022-10-25T05:15:25.875Z,26.73
2022-10-25T05:20:29.253Z,24.13
2022-10-25T05:25:31.687Z,21.45
2022-10-25T05:30:34.021Z,26.83
2022-10-25T05:35:36.694Z,24.35
2022-10-25T05:40:38.934Z,20.80
2022-10-25T05:45:41.256Z,20.73
2022-10-25T05:50:43.586Z,19.65
2022-10-25T05:55:45.843Z,26.23
2022-10-25T06:00:48.184Z,20.38
2022-10-25T06:05:50.468Z,12.70
2022-10-25T06:10:52.732Z,15.07
2022-10-25T06:15:55.025Z,14.57
2022-10-25T06:20:57.322Z,11.68
2022-10-25T06:26:06.478Z,12.82
2022-10-25T06:31:11.847Z,14.50
2022-10-25T06:36:19.404Z,11.38
2022-10-25T06:46:30.669Z,14.27
2022-10-25T06:51:34.541Z,18.08
2022-10-25T06:56:37.279Z,18.45
2022-10-25T07:01:39.672Z,17.30
2022-10-25T07:06:42.033Z,13.52
2022-10-25T07:11:45.843Z,16.33
2022-10-25T07:16:48.167Z,15.85
2022-10-25T07:21:50.650Z,16.65
2022-10-25T07:26:52.947Z,16.80
2022-10-25T07:31:55.339Z,15.73
2022-10-25T07:36:57.714Z,11.60
2022-10-25T07:42:00.085Z,10.98
2022-10-25T07:47:02.387Z,13.93
2022-10-25T07:52:04.810Z,11.18
2022-10-25T07:57:07.227Z,12.65
2022-10-25T08:02:12.262Z,14.52
2022-10-25T08:07:14.650Z,14.05
2022-10-25T08:12:21.602Z,15.60
2022-10-25T08:17:24.891Z,10.73
2022-10-25T08:22:27.227Z,10.88
2022-10-25T08:27:29.617Z,13.38
2022-10-25T08:32:31.982Z,14.73
2022-10-25T08:37:34.313Z,14.02
2022-10-25T08:42:58.577Z,9.27
2022-10-25T08:48:01.378Z,11.73
2022-10-25T08:53:06.616Z,13.80
2022-10-25T08:58:22.431Z,12.63
2022-10-25T09:03:26.854Z,15.90
2022-10-25T09:08:59.921Z,13.30
2022-10-25T09:14:19.769Z,11.23
2022-10-25T09:19:26.576Z,14.75
2022-10-25T09:24:36.624Z,10.60
2022-10-25T09:29:50.574Z,9.45
2022-10-25T09:34:54.732Z,14.55
2022-10-25T09:40:00.739Z,9.93
2022-10-25T09:45:08.176Z,10.00
2022-10-25T09:50:31.415Z,10.25
2022-10-25T09:55:47.019Z,10.30
2022-10-25T10:00:51.115Z,24.15
2022-10-25T10:05:58.130Z,12.98
2022-10-25T10:11:00.584Z,11.27
2022-10-25T10:16:35.708Z,8.07
2022-10-25T10:21:38.411Z,19.05
2022-10-25T10:26:49.708Z,8.73
2022-10-25T10:31:54.482Z,10.70
2022-10-25T10:37:07.967Z,14.00
2022-10-25T10:42:22.250Z,9.45
2022-10-25T10:47:26.316Z,10.57
2022-10-25T10:52:32.975Z,11.48
2022-10-25T10:57:36.133Z,9.40
2022-10-25T11:02:41.837Z,13.45
2022-10-25T11:07:44.562Z,9.02
2022-10-25T11:13:05.296Z,13.15
2022-10-25T11:18:08.536Z,9.38
2022-10-25T11:23:32.602Z,8.10
2022-10-25T11:28:49.137Z,8.90
2022-10-25T11:34:20.404Z,12.20
2022-10-25T11:40:14.949Z,9.07
2022-10-25T11:45:33.483Z,15.55
2022-10-25T11:50:57.830Z,9.50
2022-10-25T11:56:01.542Z,12.40
2022-10-25T12:01:48.985Z,10.63
2022-10-25T12:07:30.725Z,13.77
2022-10-25T12:13:01.699Z,13.00
2022-10-25T12:18:06.643Z,16.42
2022-10-25T12:23:13.584Z,18.42
2022-10-25T12:28:45.579Z,12.68
2022-10-25T12:33:54.977Z,15.15
2022-10-25T12:39:00.831Z,15.73
2022-10-25T12:44:15.243Z,14.00
2022-10-25T12:50:05.081Z,13.95
2022-10-25T12:55:07.343Z,12.82
2022-10-25T13:00:11.772Z,11.50
2022-10-25T13:05:32.126Z,14.70
2022-10-25T13:10:43.351Z,11.10
2022-10-25T13:15:50.292Z,11.55
2022-10-25T13:20:53.179Z,9.38
2022-10-25T13:26:08.576Z,9.73
2022-10-25T13:31:35.572Z,9.55
2022-10-25T13:36:48.486Z,11.52
2022-10-25T13:41:50.950Z,11.82
2022-10-25T13:46:55.060Z,11.82
2022-10-25T13:51:59.338Z,11.32
2022-10-25T13:57:01.574Z,10.15
2022-10-25T14:02:19.491Z,8.10
2022-10-25T14:07:47.836Z,10.40
2022-10-25T14:12:53.660Z,9.02
2022-10-25T14:17:56.642Z,9.32
2022-10-25T14:23:07.863Z,11.35
2022-10-25T14:28:29.511Z,15.68
2022-10-25T14:33:53.054Z,13.20
2022-10-25T14:39:01.010Z,9.05
2022-10-25T14:44:03.455Z,14.35
2022-10-25T14:49:10.041Z,14.10
2022-10-25T14:54:15.094Z,14.75
2022-10-25T14:59:45.052Z,13.27
2022-10-25T15:04:49.928Z,13.65
2022-10-25T15:09:54.070Z,42.58
2022-10-25T15:14:59.451Z,12.70
2022-10-25T15:20:16.556Z,13.98
2022-10-25T15:25:24.758Z,17.43
2022-10-25T15:30:40.507Z,18.95
2022-10-25T15:35:48.445Z,15.35
2022-10-25T15:40:50.944Z,11.88
2022-10-25T15:45:54.824Z,13.73
2022-10-25T15:50:58.441Z,10.50
2022-10-25T15:56:00.748Z,13.23
2022-10-25T16:01:03.140Z,11.15
2022-10-25T16:06:05.961Z,12.57
2022-10-25T16:11:14.801Z,11.07
2022-10-25T16:16:39.507Z,11.82
2022-10-25T16:21:43.716Z,12.07
2022-10-25T16:26:47.885Z,9.68
2022-10-25T16:31:50.351Z,11.65
2022-10-25T16:36:52.952Z,11.43
2022-10-25T16:41:58.386Z,9.55
2022-10-25T16:47:00.747Z,11.43
2022-10-25T16:52:03.301Z,13.35
2022-10-25T16:57:05.962Z,11.27
2022-10-25T17:02:26.695Z,12.73
2022-10-25T17:07:30.569Z,13.10
2022-10-25T17:12:32.910Z,10.95
2022-10-25T17:17:35.247Z,14.02
2022-10-25T17:22:38.510Z,15.80
2022-10-25T17:27:45.475Z,15.10
2022-10-25T17:32:48.459Z,20.33
2022-10-25T17:37:54.686Z,23.48
2022-10-25T17:42:56.977Z,15.10
2022-10-25T17:48:00.403Z,16.85
2022-10-25T17:53:02.953Z,23.15
2022-10-25T17:58:05.250Z,19.83
2022-10-25T18:03:07.578Z,21.02
2022-10-25T18:08:10.101Z,28.95
2022-10-25T18:13:12.429Z,28.92
2022-10-25T18:18:14.713Z,31.10
2022-10-25T18:23:17.914Z,37.33
2022-10-25T18:28:20.299Z,34.40
2022-10-25T18:33:25.153Z,29.20
2022-10-25T18:38:27.644Z,27.35
2022-10-25T18:43:30.114Z,30.50
2022-10-25T18:48:32.528Z,32.47
2022-10-25T18:53:39.606Z,36.78
2022-10-25T18:58:42.555Z,28.80
2022-10-25T19:03:45.399Z,28.42
2022-10-25T19:08:49.335Z,28.65
2022-10-25T19:13:55.606Z,27.10
2022-10-25T19:19:02.434Z,29.15
2022-10-25T19:24:05.318Z,24.77
2022-10-25T19:29:07.614Z,28.30
2022-10-25T19:34:09.942Z,30.85
2022-10-25T19:39:12.252Z,33.30
2022-10-25T19:44:14.610Z,34.67
2022-10-25T19:49:17.430Z,27.98
2022-10-25T19:54:20.037Z,31.38
2022-10-25T19:59:22.471Z,28.40
2022-10-25T20:04:24.991Z,32.42
2022-10-25T20:09:27.336Z,27.73
2022-10-25T20:14:30.938Z,31.52
2022-10-25T20:19:33.297Z,28.88
2022-10-25T20:24:35.713Z,32.15
2022-10-25T20:29:37.975Z,28.98
2022-10-25T20:34:40.290Z,27.58
2022-10-25T20:39:42.781Z,24.83
2022-10-25T20:44:45.127Z,24.52
2022-10-25T20:49:47.432Z,30.83
2022-10-25T20:54:50.210Z,30.63
2022-10-25T20:59:52.529Z,30.35
2022-10-25T21:04:54.910Z,29.15
2022-10-25T21:09:57.328Z,23.40
2022-10-25T21:14:59.655Z,26.65
2022-10-25T21:20:02.114Z,27.08
2022-10-25T21:25:04.559Z,27.83
2022-10-25T21:30:07.867Z,22.60
2022-10-25T21:35:10.256Z,23.95
2022-10-25T21:40:12.725Z,27.48
2022-10-25T21:45:15.071Z,25.80
2022-10-25T21:50:17.452Z,25.58
2022-10-25T21:55:19.749Z,27.83
2022-10-25T22:00:22.039Z,34.90
2022-10-25T22:05:24.390Z,28.58
2022-10-25T22:10:26.910Z,31.45
2022-10-25T22:15:29.179Z,33.78
2022-10-25T22:20:31.480Z,30.95
2022-10-25T22:25:33.797Z,30.10
2022-10-25T22:30:36.115Z,29.45
2022-10-25T22:35:38.540Z,32.88
2022-10-25T22:40:41.430Z,30.88
2022-10-25T22:45:43.733Z,27.30
2022-10-25T22:50:54.114Z,35.78
2022-10-25T22:56:05.280Z,36.33
2022-10-25T23:01:11.517Z,37.20
2022-10-25T23:06:15.837Z,35.97
2022-10-25T23:11:20.624Z,32.35
2022-10-25T23:16:22.886Z,37.13
2022-10-25T23:21:26.993Z,40.30
2022-10-25T23:26:34.351Z,37.90
2022-10-25T23:31:37.245Z,41.10
2022-10-25T23:36:39.563Z,39.97
2022-10-25T23:41:41.888Z,39.47
2022-10-25T23:46:44.219Z,41.22
2022-10-25T23:51:46.816Z,31.30
2022-10-25T23:56:49.142Z,37.50
